sensor_id;sensor_type;location;lat;lon;timestamp;pressure;altitude;pressure_sealevel;temperature;humidity
10464;BME280;5279;42.048;24.638;2022-07-29T00:00:09;97564.47;;;20.78;100.00
10464;BME280;5279;42.048;24.638;2022-07-29T00:02:36;97562.59;;;20.65;100.00
10464;BME280;5279;42.048;24.638;2022-07-29T00:05:04;97565.09;;;20.66;100.00
10464;BME280;5279;42.048;24.638;2022-07-29T00:07:31;97563.44;;;20.65;100.00
10464;BME280;5279;42.048;24.638;2022-07-29T00:09:58;97559.50;;;20.61;100.00
10464;BME280;5279;42.048;24.638;2022-07-29T00:12:26;97550.22;;;20.57;100.00
10464;BME280;5279;42.048;24.638;2022-07-29T00:14:53;97539.84;;;20.54;100.00
10464;BME280;5279;42.048;24.638;2022-07-29T00:17:21;97546.91;;;20.42;100.00
10464;BME280;5279;42.048;24.638;2022-07-29T00:19:48;97546.47;;;20.39;100.00
10464;BME280;5279;42.048;24.638;2022-07-29T00:22:15;97554.75;;;20.31;100.00
10464;BME280;5279;42.048;24.638;2022-07-29T00:24:41;97551.41;;;20.22;100.00
10464;BME280;5279;42.048;24.638;2022-07-29T00:27:08;97550.16;;;20.25;100.00
10464;BME280;5279;42.048;24.638;2022-07-29T00:29:36;97552.63;;;20.13;100.00
10464;BME280;5279;42.048;24.638;2022-07-29T00:32:04;97546.44;;;19.99;100.00
10464;BME280;5279;42.048;24.638;2022-07-29T00:34:31;97552.44;;;20.08;100.00
10464;BME280;5279;42.048;24.638;2022-07-29T00:37:15;97548.09;;;20.07;100.00
10464;BME280;5279;42.048;24.638;2022-07-29T00:39:42;97551.41;;;20.02;100.00
10464;BME280;5279;42.048;24.638;2022-07-29T00:42:09;97551.81;;;19.99;100.00
10464;BME280;5279;42.048;24.638;2022-07-29T00:44:38;97549.72;;;19.95;100.00
10464;BME280;5279;42.048;24.638;2022-07-29T00:47:05;97552.03;;;20.11;100.00
10464;BME280;5279;42.048;24.638;2022-07-29T00:49:32;97546.66;;;20.11;100.00
10464;BME280;5279;42.048;24.638;2022-07-29T00:52:00;97551.84;;;20.06;100.00
10464;BME280;5279;42.048;24.638;2022-07-29T00:54:28;97547.66;;;20.10;100.00
10464;BME280;5279;42.048;24.638;2022-07-29T00:56:56;97561.78;;;20.12;100.00
10464;BME280;5279;42.048;24.638;2022-07-29T00:59:24;97550.97;;;20.18;100.00
10464;BME280;5279;42.048;24.638;2022-07-29T01:01:53;97550.59;;;20.15;100.00
10464;BME280;5279;42.048;24.638;2022-07-29T01:04:48;97550.59;;;20.15;100.00
10464;BME280;5279;42.048;24.638;2022-07-29T01:07:15;97554.72;;;20.17;100.00
10464;BME280;5279;42.048;24.638;2022-07-29T01:09:43;97548.50;;;20.17;100.00
10464;BME280;5279;42.048;24.638;2022-07-29T01:15:34;97567.59;;;20.35;100.00
10464;BME280;5279;42.048;24.638;2022-07-29T01:18:11;97563.47;;;20.39;100.00
10464;BME280;5279;42.048;24.638;2022-07-29T01:23:46;97553.94;;;20.30;100.00
10464;BME280;5279;42.048;24.638;2022-07-29T01:26:41;97556.84;;;20.35;100.00
10464;BME280;5279;42.048;24.638;2022-07-29T01:29:24;97562.63;;;20.32;100.00
10464;BME280;5279;42.048;24.638;2022-07-29T01:31:56;97558.50;;;20.36;100.00
10464;BME280;5279;42.048;24.638;2022-07-29T01:34:29;97554.13;;;20.35;100.00
10464;BME280;5279;42.048;24.638;2022-07-29T01:37:07;97557.66;;;20.36;100.00
10464;BME280;5279;42.048;24.638;2022-07-29T01:39:37;97557.25;;;20.39;100.00
10464;BME280;5279;42.048;24.638;2022-07-29T01:42:12;97571.72;;;20.38;100.00
10464;BME280;5279;42.048;24.638;2022-07-29T01:44:48;97555.56;;;20.31;100.00
10464;BME280;5279;42.048;24.638;2022-07-29T01:47:20;97566.94;;;20.20;100.00
10464;BME280;5279;42.048;24.638;2022-07-29T01:49:51;97565.06;;;20.14;100.00
10464;BME280;5279;42.048;24.638;2022-07-29T01:52:23;97572.91;;;20.15;100.00
10464;BME280;5279;42.048;24.638;2022-07-29T01:54:55;97568.38;;;20.16;100.00
10464;BME280;5279;42.048;24.638;2022-07-29T01:57:27;97563.00;;;20.16;100.00
10464;BME280;5279;42.048;24.638;2022-07-29T01:59:58;97562.97;;;20.09;100.00
10464;BME280;5279;42.048;24.638;2022-07-29T02:02:27;97560.72;;;20.00;100.00
10464;BME280;5279;42.048;24.638;2022-07-29T02:04:56;97560.06;;;19.98;100.00
10464;BME280;5279;42.048;24.638;2022-07-29T02:07:24;97561.75;;;19.99;100.00
10464;BME280;5279;42.048;24.638;2022-07-29T02:09:54;97549.31;;;19.85;100.00
10464;BME280;5279;42.048;24.638;2022-07-29T02:12:24;97562.53;;;19.80;100.00
10464;BME280;5279;42.048;24.638;2022-07-29T02:14:53;97558.38;;;19.71;100.00
10464;BME280;5279;42.048;24.638;2022-07-29T02:17:26;97560.88;;;19.79;100.00
10464;BME280;5279;42.048;24.638;2022-07-29T02:19:57;97555.09;;;19.82;100.00
10464;BME280;5279;42.048;24.638;2022-07-29T02:22:26;97554.66;;;19.72;100.00
10464;BME280;5279;42.048;24.638;2022-07-29T02:24:55;97561.88;;;19.71;100.00
10464;BME280;5279;42.048;24.638;2022-07-29T02:27:25;97550.09;;;19.66;100.00
10464;BME280;5279;42.048;24.638;2022-07-29T02:29:54;97538.88;;;19.55;100.00
10464;BME280;5279;42.048;24.638;2022-07-29T02:32:26;97538.06;;;19.61;100.00
10464;BME280;5279;42.048;24.638;2022-07-29T02:34:54;97536.44;;;19.60;100.00
10464;BME280;5279;42.048;24.638;2022-07-29T02:37:23;97540.16;;;19.59;100.00
10464;BME280;5279;42.048;24.638;2022-07-29T02:39:52;97530.00;;;19.55;100.00
10464;BME280;5279;42.048;24.638;2022-07-29T02:42:22;97538.91;;;19.62;100.00
10464;BME280;5279;42.048;24.638;2022-07-29T02:44:50;97530.25;;;19.67;100.00
10464;BME280;5279;42.048;24.638;2022-07-29T02:47:20;97540.56;;;19.63;100.00
10464;BME280;5279;42.048;24.638;2022-07-29T02:49:53;97528.53;;;19.52;100.00
10464;BME280;5279;42.048;24.638;2022-07-29T02:52:26;97521.94;;;19.48;100.00
10464;BME280;5279;42.048;24.638;2022-07-29T02:54:55;97530.22;;;19.53;100.00
10464;BME280;5279;42.048;24.638;2022-07-29T02:57:30;97537.00;;;19.49;100.00
10464;BME280;5279;42.048;24.638;2022-07-29T03:00:00;97530.09;;;19.34;100.00
10464;BME280;5279;42.048;24.638;2022-07-29T03:02:33;97539.06;;;19.41;100.00
10464;BME280;5279;42.048;24.638;2022-07-29T03:05:02;97538.47;;;19.45;100.00
10464;BME280;5279;42.048;24.638;2022-07-29T03:07:30;97531.00;;;19.47;100.00
10464;BME280;5279;42.048;24.638;2022-07-29T03:09:58;97533.75;;;19.60;100.00
10464;BME280;5279;42.048;24.638;2022-07-29T03:12:25;97543.25;;;19.56;100.00
10464;BME280;5279;42.048;24.638;2022-07-29T03:14:54;97544.91;;;19.57;100.00
10464;BME280;5279;42.048;24.638;2022-07-29T03:17:22;97549.22;;;19.58;100.00
10464;BME280;5279;42.048;24.638;2022-07-29T03:19:50;97548.00;;;19.54;100.00
10464;BME280;5279;42.048;24.638;2022-07-29T03:22:18;97547.59;;;19.57;100.00
10464;BME280;5279;42.048;24.638;2022-07-29T03:24:45;97551.50;;;19.48;100.00
10464;BME280;5279;42.048;24.638;2022-07-29T03:27:12;97558.47;;;19.43;100.00
10464;BME280;5279;42.048;24.638;2022-07-29T03:29:39;97555.19;;;19.47;100.00
10464;BME280;5279;42.048;24.638;2022-07-29T03:32:07;97560.75;;;19.46;100.00
10464;BME280;5279;42.048;24.638;2022-07-29T03:34:34;97569.50;;;19.54;100.00
10464;BME280;5279;42.048;24.638;2022-07-29T03:37:01;97568.28;;;19.63;100.00
10464;BME280;5279;42.048;24.638;2022-07-29T03:39:31;97564.94;;;19.55;100.00
10464;BME280;5279;42.048;24.638;2022-07-29T03:42:00;97578.19;;;19.56;100.00
10464;BME280;5279;42.048;24.638;2022-07-29T03:44:28;97570.34;;;19.61;100.00
10464;BME280;5279;42.048;24.638;2022-07-29T03:46:57;97567.06;;;19.73;100.00
10464;BME280;5279;42.048;24.638;2022-07-29T03:49:27;97570.78;;;19.72;100.00
10464;BME280;5279;42.048;24.638;2022-07-29T03:51:55;97565.44;;;19.85;100.00
10464;BME280;5279;42.048;24.638;2022-07-29T03:54:22;97568.34;;;19.90;100.00
10464;BME280;5279;42.048;24.638;2022-07-29T03:56:52;97571.25;;;19.95;100.00
10464;BME280;5279;42.048;24.638;2022-07-29T03:59:21;97572.50;;;19.99;100.00
10464;BME280;5279;42.048;24.638;2022-07-29T04:01:48;97564.63;;;19.97;100.00
10464;BME280;5279;42.048;24.638;2022-07-29T04:04:16;97575.41;;;20.10;100.00
10464;BME280;5279;42.048;24.638;2022-07-29T04:06:45;97567.13;;;20.25;100.00
10464;BME280;5279;42.048;24.638;2022-07-29T04:09:12;97573.81;;;20.29;100.00
10464;BME280;5279;42.048;24.638;2022-07-29T04:11:40;97580.03;;;20.36;100.00
10464;BME280;5279;42.048;24.638;2022-07-29T04:14:09;97577.94;;;20.38;100.00
10464;BME280;5279;42.048;24.638;2022-07-29T04:16:36;97564.50;;;20.45;100.00
10464;BME280;5279;42.048;24.638;2022-07-29T04:19:03;97578.75;;;20.58;100.00
10464;BME280;5279;42.048;24.638;2022-07-29T04:21:29;97581.25;;;20.66;99.04
10464;BME280;5279;42.048;24.638;2022-07-29T04:23:56;97580.44;;;20.73;100.00
10464;BME280;5279;42.048;24.638;2022-07-29T04:26:23;97584.56;;;20.82;100.00
10464;BME280;5279;42.048;24.638;2022-07-29T04:28:50;97582.22;;;20.98;100.00
10464;BME280;5279;42.048;24.638;2022-07-29T04:31:18;97570.81;;;21.16;100.00
10464;BME280;5279;42.048;24.638;2022-07-29T04:33:45;97563.34;;;21.24;100.00
10464;BME280;5279;42.048;24.638;2022-07-29T04:36:12;97572.75;;;21.53;96.20
10464;BME280;5279;42.048;24.638;2022-07-29T04:38:39;97576.88;;;21.62;93.92
10464;BME280;5279;42.048;24.638;2022-07-29T04:41:06;97570.19;;;21.71;92.90
10464;BME280;5279;42.048;24.638;2022-07-29T04:43:34;97570.53;;;21.88;91.67
10464;BME280;5279;42.048;24.638;2022-07-29T04:46:01;97579.22;;;21.97;90.64
10464;BME280;5279;42.048;24.638;2022-07-29T04:48:29;97574.50;;;22.17;89.96
10464;BME280;5279;42.048;24.638;2022-07-29T04:50:56;97582.50;;;22.30;87.95
10464;BME280;5279;42.048;24.638;2022-07-29T04:53:23;97579.31;;;22.40;85.24
10464;BME280;5279;42.048;24.638;2022-07-29T04:55:50;97578.00;;;22.49;86.90
10464;BME280;5279;42.048;24.638;2022-07-29T04:58:17;97587.88;;;22.61;82.38
10464;BME280;5279;42.048;24.638;2022-07-29T05:00:44;97579.06;;;22.72;83.70
10464;BME280;5279;42.048;24.638;2022-07-29T05:03:10;97585.41;;;22.84;82.50
10464;BME280;5279;42.048;24.638;2022-07-29T05:05:39;97584.38;;;23.04;76.89
10464;BME280;5279;42.048;24.638;2022-07-29T05:08:06;97590.25;;;23.19;73.64
10464;BME280;5279;42.048;24.638;2022-07-29T05:10:33;97598.19;;;23.32;74.13
10464;BME280;5279;42.048;24.638;2022-07-29T05:13:04;97582.56;;;23.41;74.75
10464;BME280;5279;42.048;24.638;2022-07-29T05:15:30;97590.94;;;23.69;74.92
10464;BME280;5279;42.048;24.638;2022-07-29T05:17:57;97592.31;;;23.89;74.92
10464;BME280;5279;42.048;24.638;2022-07-29T05:20:24;97581.22;;;24.09;73.81
10464;BME280;5279;42.048;24.638;2022-07-29T05:22:55;97579.06;;;24.29;69.00
10464;BME280;5279;42.048;24.638;2022-07-29T05:25:23;97590.66;;;24.48;65.51
10464;BME280;5279;42.048;24.638;2022-07-29T05:27:50;97594.66;;;24.57;64.97
10464;BME280;5279;42.048;24.638;2022-07-29T05:30:16;97589.75;;;24.77;64.51
10464;BME280;5279;42.048;24.638;2022-07-29T05:32:43;97586.00;;;24.90;66.02
10464;BME280;5279;42.048;24.638;2022-07-29T05:35:11;97596.03;;;24.89;67.22
10464;BME280;5279;42.048;24.638;2022-07-29T05:37:37;97592.78;;;24.69;69.94
10464;BME280;5279;42.048;24.638;2022-07-29T05:40:08;97589.22;;;24.98;73.76
10464;BME280;5279;42.048;24.638;2022-07-29T05:42:35;97593.53;;;25.11;73.28
10464;BME280;5279;42.048;24.638;2022-07-29T05:45:03;97596.75;;;25.20;68.82
10464;BME280;5279;42.048;24.638;2022-07-29T05:47:30;97607.22;;;25.28;65.55
10464;BME280;5279;42.048;24.638;2022-07-29T05:49:57;97607.09;;;25.34;66.78
10464;BME280;5279;42.048;24.638;2022-07-29T05:52:24;97602.03;;;25.38;70.94
10464;BME280;5279;42.048;24.638;2022-07-29T05:54:50;97607.81;;;25.53;73.10
10464;BME280;5279;42.048;24.638;2022-07-29T05:57:20;97610.03;;;25.56;72.30
10464;BME280;5279;42.048;24.638;2022-07-29T05:59:48;97611.88;;;25.67;75.95
10464;BME280;5279;42.048;24.638;2022-07-29T06:02:16;97607.16;;;25.74;76.56
10464;BME280;5279;42.048;24.638;2022-07-29T06:04:43;97615.75;;;25.83;78.11
10464;BME280;5279;42.048;24.638;2022-07-29T06:07:10;97612.41;;;25.92;79.45
10464;BME280;5279;42.048;24.638;2022-07-29T06:09:37;97616.00;;;26.09;81.04
10464;BME280;5279;42.048;24.638;2022-07-29T06:12:04;97617.66;;;26.11;78.40
10464;BME280;5279;42.048;24.638;2022-07-29T06:14:33;97617.78;;;26.16;79.51
10464;BME280;5279;42.048;24.638;2022-07-29T06:17:00;97617.47;;;26.29;80.76
10464;BME280;5279;42.048;24.638;2022-07-29T06:19:27;97616.16;;;26.31;79.51
10464;BME280;5279;42.048;24.638;2022-07-29T06:21:54;97613.31;;;26.38;77.62
10464;BME280;5279;42.048;24.638;2022-07-29T06:24:20;97619.31;;;26.40;76.89
10464;BME280;5279;42.048;24.638;2022-07-29T06:26:47;97617.75;;;26.44;74.34
10464;BME280;5279;42.048;24.638;2022-07-29T06:29:14;97608.78;;;26.43;79.33
10464;BME280;5279;42.048;24.638;2022-07-29T06:31:42;97623.84;;;26.51;74.24
10464;BME280;5279;42.048;24.638;2022-07-29T06:34:09;97620.88;;;26.69;76.51
10464;BME280;5279;42.048;24.638;2022-07-29T06:36:37;97610.50;;;26.66;72.84
10464;BME280;5279;42.048;24.638;2022-07-29T06:39:05;97614.47;;;26.75;72.88
10464;BME280;5279;42.048;24.638;2022-07-29T06:41:32;97610.88;;;26.86;70.35
10464;BME280;5279;42.048;24.638;2022-07-29T06:43:59;97613.97;;;26.78;69.54
10464;BME280;5279;42.048;24.638;2022-07-29T06:46:26;97620.41;;;27.05;69.81
10464;BME280;5279;42.048;24.638;2022-07-29T06:48:55;97618.59;;;27.28;68.87
10464;BME280;5279;42.048;24.638;2022-07-29T06:51:22;97614.13;;;27.22;66.84
10464;BME280;5279;42.048;24.638;2022-07-29T06:53:50;97617.34;;;27.35;68.04
10464;BME280;5279;42.048;24.638;2022-07-29T06:56:17;97620.72;;;27.42;63.52
10464;BME280;5279;42.048;24.638;2022-07-29T06:58:44;97615.75;;;27.56;65.02
10464;BME280;5279;42.048;24.638;2022-07-29T07:01:10;97624.75;;;27.78;62.81
10464;BME280;5279;42.048;24.638;2022-07-29T07:03:37;97629.19;;;27.84;63.89
10464;BME280;5279;42.048;24.638;2022-07-29T07:06:05;97623.78;;;27.89;63.42
10464;BME280;5279;42.048;24.638;2022-07-29T07:08:32;97617.69;;;28.04;62.51
10464;BME280;5279;42.048;24.638;2022-07-29T07:10:59;97618.66;;;28.14;61.69
10464;BME280;5279;42.048;24.638;2022-07-29T07:13:26;97619.97;;;28.12;60.47
10464;BME280;5279;42.048;24.638;2022-07-29T07:15:53;97617.69;;;28.26;61.52
10464;BME280;5279;42.048;24.638;2022-07-29T07:18:20;97615.66;;;28.43;58.47
10464;BME280;5279;42.048;24.638;2022-07-29T07:20:47;97605.81;;;28.10;59.69
10464;BME280;5279;42.048;24.638;2022-07-29T07:23:15;97620.72;;;28.29;58.90
10464;BME280;5279;42.048;24.638;2022-07-29T07:25:42;97619.06;;;28.55;58.82
10464;BME280;5279;42.048;24.638;2022-07-29T07:28:09;97611.03;;;28.70;59.67
10464;BME280;5279;42.048;24.638;2022-07-29T07:30:35;97614.41;;;28.82;59.49
10464;BME280;5279;42.048;24.638;2022-07-29T07:33:02;97614.72;;;28.86;57.30
10464;BME280;5279;42.048;24.638;2022-07-29T07:35:30;97606.81;;;28.84;55.92
10464;BME280;5279;42.048;24.638;2022-07-29T07:37:57;97610.63;;;28.83;56.88
10464;BME280;5279;42.048;24.638;2022-07-29T07:40:25;97615.63;;;28.96;58.71
10464;BME280;5279;42.048;24.638;2022-07-29T07:42:52;97614.06;;;29.05;56.01
10464;BME280;5279;42.048;24.638;2022-07-29T07:45:20;97609.31;;;29.27;59.03
10464;BME280;5279;42.048;24.638;2022-07-29T07:47:47;97609.38;;;29.38;55.48
10464;BME280;5279;42.048;24.638;2022-07-29T07:50:13;97613.00;;;29.48;55.49
10464;BME280;5279;42.048;24.638;2022-07-29T07:52:47;97605.13;;;29.57;52.86
10464;BME280;5279;42.048;24.638;2022-07-29T07:55:15;97605.44;;;29.70;53.64
10464;BME280;5279;42.048;24.638;2022-07-29T07:57:43;97604.19;;;29.83;54.20
10464;BME280;5279;42.048;24.638;2022-07-29T08:00:11;97603.16;;;29.94;53.62
10464;BME280;5279;42.048;24.638;2022-07-29T08:02:38;97599.34;;;30.00;53.55
10464;BME280;5279;42.048;24.638;2022-07-29T08:05:06;97601.00;;;30.11;51.77
10464;BME280;5279;42.048;24.638;2022-07-29T08:07:33;97602.31;;;29.99;51.05
10464;BME280;5279;42.048;24.638;2022-07-29T08:10:01;97604.81;;;30.10;49.99
10464;BME280;5279;42.048;24.638;2022-07-29T08:12:28;97603.69;;;29.96;50.23
10464;BME280;5279;42.048;24.638;2022-07-29T08:14:56;97607.53;;;30.10;50.01
10464;BME280;5279;42.048;24.638;2022-07-29T08:17:23;97603.22;;;30.29;49.45
10464;BME280;5279;42.048;24.638;2022-07-29T08:19:50;97599.13;;;30.27;49.55
10464;BME280;5279;42.048;24.638;2022-07-29T08:22:17;97602.69;;;30.32;49.05
10464;BME280;5279;42.048;24.638;2022-07-29T08:24:43;97599.13;;;30.32;48.95
10464;BME280;5279;42.048;24.638;2022-07-29T08:27:17;97589.00;;;30.38;48.04
10464;BME280;5279;42.048;24.638;2022-07-29T08:29:44;97595.09;;;30.55;46.66
10464;BME280;5279;42.048;24.638;2022-07-29T08:32:12;97596.75;;;30.66;47.05
10464;BME280;5279;42.048;24.638;2022-07-29T08:34:39;97589.63;;;30.85;46.12
10464;BME280;5279;42.048;24.638;2022-07-29T08:37:06;97590.19;;;31.12;46.31
10464;BME280;5279;42.048;24.638;2022-07-29T08:39:33;97592.91;;;31.07;45.26
10464;BME280;5279;42.048;24.638;2022-07-29T08:42:00;97596.72;;;31.26;46.34
10464;BME280;5279;42.048;24.638;2022-07-29T08:44:27;97586.56;;;31.32;44.21
10464;BME280;5279;42.048;24.638;2022-07-29T08:46:54;97581.03;;;31.47;45.19
10464;BME280;5279;42.048;24.638;2022-07-29T08:49:22;97580.53;;;31.55;44.20
10464;BME280;5279;42.048;24.638;2022-07-29T08:51:49;97576.91;;;31.70;43.21
10464;BME280;5279;42.048;24.638;2022-07-29T08:54:17;97578.53;;;31.76;42.93
10464;BME280;5279;42.048;24.638;2022-07-29T08:56:48;97574.69;;;31.72;42.29
10464;BME280;5279;42.048;24.638;2022-07-29T08:59:19;97567.81;;;31.79;41.64
10464;BME280;5279;42.048;24.638;2022-07-29T09:01:47;97568.84;;;31.93;40.15
10464;BME280;5279;42.048;24.638;2022-07-29T09:04:15;97563.78;;;32.21;41.16
10464;BME280;5279;42.048;24.638;2022-07-29T09:06:45;97561.78;;;32.31;40.05
10464;BME280;5279;42.048;24.638;2022-07-29T09:09:14;97556.91;;;32.23;41.06
10464;BME280;5279;42.048;24.638;2022-07-29T09:11:41;97551.41;;;32.23;41.14
10464;BME280;5279;42.048;24.638;2022-07-29T09:14:11;97556.41;;;32.50;41.72
10464;BME280;5279;42.048;24.638;2022-07-29T09:16:47;97557.72;;;32.63;39.43
10464;BME280;5279;42.048;24.638;2022-07-29T09:19:22;97549.75;;;32.66;38.36
10464;BME280;5279;42.048;24.638;2022-07-29T09:21:51;97539.28;;;32.68;39.68
10464;BME280;5279;42.048;24.638;2022-07-29T09:24:36;97540.84;;;32.79;39.50
10464;BME280;5279;42.048;24.638;2022-07-29T09:27:08;97556.84;;;33.01;37.73
10464;BME280;5279;42.048;24.638;2022-07-29T09:29:36;97547.34;;;33.17;36.89
10464;BME280;5279;42.048;24.638;2022-07-29T09:32:08;97537.13;;;33.23;36.46
10464;BME280;5279;42.048;24.638;2022-07-29T09:34:36;97542.63;;;33.23;34.66
10464;BME280;5279;42.048;24.638;2022-07-29T09:37:04;97536.91;;;33.19;34.38
10464;BME280;5279;42.048;24.638;2022-07-29T09:39:33;97539.13;;;33.17;35.90
10464;BME280;5279;42.048;24.638;2022-07-29T09:42:01;97535.03;;;33.38;35.15
10464;BME280;5279;42.048;24.638;2022-07-29T09:44:41;97534.81;;;33.59;34.40
10464;BME280;5279;42.048;24.638;2022-07-29T09:47:08;97521.03;;;33.64;32.73
10464;BME280;5279;42.048;24.638;2022-07-29T09:49:49;97528.69;;;33.67;32.66
10464;BME280;5279;42.048;24.638;2022-07-29T09:52:17;97527.59;;;33.68;33.06
10464;BME280;5279;42.048;24.638;2022-07-29T09:54:47;97520.91;;;33.74;30.81
10464;BME280;5279;42.048;24.638;2022-07-29T09:57:25;97529.97;;;33.93;30.81
10464;BME280;5279;42.048;24.638;2022-07-29T09:59:59;97518.72;;;34.13;32.94
10464;BME280;5279;42.048;24.638;2022-07-29T10:02:31;97521.97;;;34.34;30.85
10464;BME280;5279;42.048;24.638;2022-07-29T10:04:58;97517.19;;;34.39;31.45
10464;BME280;5279;42.048;24.638;2022-07-29T10:07:43;97513.03;;;34.61;31.35
10464;BME280;5279;42.048;24.638;2022-07-29T10:10:10;97514.09;;;34.78;30.06
10464;BME280;5279;42.048;24.638;2022-07-29T10:12:49;97510.94;;;34.71;29.55
10464;BME280;5279;42.048;24.638;2022-07-29T10:15:16;97504.22;;;34.58;30.51
10464;BME280;5279;42.048;24.638;2022-07-29T10:17:44;97509.19;;;34.75;30.11
10464;BME280;5279;42.048;24.638;2022-07-29T10:20:11;97509.91;;;34.81;30.00
10464;BME280;5279;42.048;24.638;2022-07-29T10:22:40;97507.03;;;34.72;29.81
10464;BME280;5279;42.048;24.638;2022-07-29T10:25:07;97512.88;;;34.71;30.19
10464;BME280;5279;42.048;24.638;2022-07-29T10:27:35;97512.00;;;34.89;29.04
10464;BME280;5279;42.048;24.638;2022-07-29T10:30:02;97512.81;;;35.03;29.41
10464;BME280;5279;42.048;24.638;2022-07-29T10:32:39;97515.47;;;34.94;28.40
10464;BME280;5279;42.048;24.638;2022-07-29T10:35:36;97506.03;;;35.14;28.45
10464;BME280;5279;42.048;24.638;2022-07-29T10:38:27;97498.09;;;35.26;27.94
10464;BME280;5279;42.048;24.638;2022-07-29T10:41:05;97500.31;;;35.24;28.29
10464;BME280;5279;42.048;24.638;2022-07-29T10:43:56;97491.97;;;35.29;30.09
10464;BME280;5279;42.048;24.638;2022-07-29T10:46:24;97493.69;;;35.39;26.94
10464;BME280;5279;42.048;24.638;2022-07-29T10:49:11;97482.03;;;35.55;28.49
10464;BME280;5279;42.048;24.638;2022-07-29T10:52:04;97482.34;;;35.54;27.21
10464;BME280;5279;42.048;24.638;2022-07-29T10:54:53;97473.06;;;35.63;27.29
10464;BME280;5279;42.048;24.638;2022-07-29T10:57:27;97469.06;;;35.70;28.19
10464;BME280;5279;42.048;24.638;2022-07-29T11:00:26;97476.97;;;35.62;26.95
10464;BME280;5279;42.048;24.638;2022-07-29T11:02:53;97468.06;;;35.66;25.80
10464;BME280;5279;42.048;24.638;2022-07-29T11:05:21;97468.25;;;35.42;26.20
10464;BME280;5279;42.048;24.638;2022-07-29T11:14:04;97457.97;;;35.47;26.73
10464;BME280;5279;42.048;24.638;2022-07-29T11:17:01;97464.19;;;35.67;26.62
10464;BME280;5279;42.048;24.638;2022-07-29T11:19:29;97454.91;;;35.62;26.64
10464;BME280;5279;42.048;24.638;2022-07-29T11:21:56;97447.00;;;35.70;27.08
10464;BME280;5279;42.048;24.638;2022-07-29T11:24:24;97439.53;;;35.84;26.13
10464;BME280;5279;42.048;24.638;2022-07-29T11:27:08;97444.31;;;35.92;27.01
10464;BME280;5279;42.048;24.638;2022-07-29T11:29:38;97444.78;;;35.94;26.49
10464;BME280;5279;42.048;24.638;2022-07-29T11:32:10;97443.84;;;36.12;27.17
10464;BME280;5279;42.048;24.638;2022-07-29T11:34:37;97446.16;;;36.18;26.11
10464;BME280;5279;42.048;24.638;2022-07-29T11:37:19;97433.47;;;35.95;26.48
10464;BME280;5279;42.048;24.638;2022-07-29T11:40:08;97439.00;;;35.82;27.41
10464;BME280;5279;42.048;24.638;2022-07-29T11:42:44;97426.59;;;35.71;27.94
10464;BME280;5279;42.048;24.638;2022-07-29T11:45:14;97427.31;;;35.98;28.32
10464;BME280;5279;42.048;24.638;2022-07-29T11:47:47;97430.19;;;36.07;27.27
10464;BME280;5279;42.048;24.638;2022-07-29T11:50:17;97420.59;;;35.91;27.74
10464;BME280;5279;42.048;24.638;2022-07-29T11:52:46;97415.84;;;35.83;27.20
10464;BME280;5279;42.048;24.638;2022-07-29T11:55:15;97413.19;;;36.00;27.40
10464;BME280;5279;42.048;24.638;2022-07-29T11:57:47;97423.25;;;35.96;26.17
10464;BME280;5279;42.048;24.638;2022-07-29T12:00:26;97415.06;;;36.04;26.81
10464;BME280;5279;42.048;24.638;2022-07-29T12:02:54;97412.13;;;36.23;27.23
10464;BME280;5279;42.048;24.638;2022-07-29T12:05:30;97404.59;;;36.15;26.16
10464;BME280;5279;42.048;24.638;2022-07-29T12:08:04;97412.66;;;36.11;26.72
10464;BME280;5279;42.048;24.638;2022-07-29T12:10:32;97405.22;;;36.12;26.72
10464;BME280;5279;42.048;24.638;2022-07-29T12:13:00;97401.72;;;36.20;27.75
10464;BME280;5279;42.048;24.638;2022-07-29T12:15:27;97407.44;;;36.24;27.26
10464;BME280;5279;42.048;24.638;2022-07-29T12:17:54;97396.00;;;36.16;27.29
10464;BME280;5279;42.048;24.638;2022-07-29T12:20:25;97407.28;;;36.06;27.72
10464;BME280;5279;42.048;24.638;2022-07-29T12:22:53;97405.06;;;35.95;26.33
10464;BME280;5279;42.048;24.638;2022-07-29T12:25:22;97406.19;;;35.94;26.58
10464;BME280;5279;42.048;24.638;2022-07-29T12:27:58;97405.09;;;35.81;26.99
10464;BME280;5279;42.048;24.638;2022-07-29T12:30:40;97405.09;;;35.81;27.27
10464;BME280;5279;42.048;24.638;2022-07-29T12:33:11;97407.13;;;35.89;28.10
10464;BME280;5279;42.048;24.638;2022-07-29T12:35:39;97406.19;;;35.72;27.98
10464;BME280;5279;42.048;24.638;2022-07-29T12:38:06;97402.31;;;35.95;28.11
10464;BME280;5279;42.048;24.638;2022-07-29T12:40:34;97391.66;;;36.02;27.53
10464;BME280;5279;42.048;24.638;2022-07-29T12:43:08;97398.03;;;35.89;27.49
10464;BME280;5279;42.048;24.638;2022-07-29T12:45:38;97389.63;;;35.94;29.21
10464;BME280;5279;42.048;24.638;2022-07-29T12:48:06;97381.13;;;36.04;26.99
10464;BME280;5279;42.048;24.638;2022-07-29T12:50:34;97371.75;;;36.05;26.96
10464;BME280;5279;42.048;24.638;2022-07-29T12:53:09;97381.63;;;35.84;27.05
10464;BME280;5279;42.048;24.638;2022-07-29T12:55:44;97378.97;;;35.79;27.08
10464;BME280;5279;42.048;24.638;2022-07-29T12:58:24;97373.44;;;35.79;26.77
10464;BME280;5279;42.048;24.638;2022-07-29T13:01:06;97375.53;;;35.73;26.10
10464;BME280;5279;42.048;24.638;2022-07-29T13:03:50;97368.63;;;35.62;27.50
10464;BME280;5279;42.048;24.638;2022-07-29T13:06:38;97364.63;;;35.54;26.66
10464;BME280;5279;42.048;24.638;2022-07-29T13:09:08;97359.22;;;35.49;27.35
10464;BME280;5279;42.048;24.638;2022-07-29T13:11:38;97361.66;;;35.51;28.05
10464;BME280;5279;42.048;24.638;2022-07-29T13:14:06;97356.69;;;35.39;28.05
10464;BME280;5279;42.048;24.638;2022-07-29T13:16:36;97352.25;;;35.16;27.61
10464;BME280;5279;42.048;24.638;2022-07-29T13:19:09;97351.31;;;34.93;28.39
10464;BME280;5279;42.048;24.638;2022-07-29T13:21:37;97339.94;;;34.86;27.88
10464;BME280;5279;42.048;24.638;2022-07-29T13:24:06;97339.50;;;34.79;27.25